Time;durP1;ratioP1;P1;durP2;ratioP2;P2;SDS_P1;SDS_P2;PMS_P1;PMS_P2;Temp;Humidity;BMP_temperature;BMP_pressure;BME280_temperature;BME280_humidity;BME280_pressure;Samples;Min_cycle;Max_cycle;Signal;HPM_P1;HPM_P2
2021/12/08 00:02:20;;;;;;;;;;;;;;;7.96;71.09;99092.88;5056116;28;19921;-66
2021/12/08 00:04:47;;;;;;;;;;;;;;;8.22;70.53;99087.97;5073493;28;19920;-67
2021/12/08 00:07:14;;;;;;;;;;;;;;;8.17;70.66;99079.97;5063606;28;19921;-68
2021/12/08 00:14:55;;;;;;;;;;;;;;;7.98;71.96;99082.41;5055440;28;19927;-66
2021/12/08 00:17:22;;;;;;;;;;;;;;;7.95;71.98;99083.84;5053530;28;19920;-66
2021/12/08 00:19:49;;;;;;;;;;;;;;;7.92;71.91;99086.47;5069308;28;19928;-67
2021/12/08 00:22:16;;;;;;;;;;;;;;;7.73;72.33;99080.66;5065891;28;19925;-66
2021/12/08 00:24:44;;;;;;;;;;;;;;;7.62;73.16;99079.44;5055562;28;19939;-67
2021/12/08 00:27:11;;;;;;;;;;;;;;;7.81;72.65;99068.84;5055643;28;19920;-67
2021/12/08 00:29:38;;;;;;;;;;;;;;;7.80;72.33;99067.22;5055789;28;19931;-67
2021/12/08 00:32:07;;;;;;;;;;;;;;;8.02;71.39;99072.34;5055692;28;19928;-67
2021/12/08 00:34:34;;;;;;;;;;;;;;;8.09;71.40;99074.56;5053977;28;19921;-66
2021/12/08 00:37:02;;;;;;;;;;;;;;;7.70;72.18;99073.09;5053633;28;19931;-67
2021/12/08 00:39:29;;;;;;;;;;;;;;;7.81;72.21;99066.09;5073605;28;19927;-67
2021/12/08 00:41:56;;;;;;;;;;;;;;;7.75;72.15;99068.22;5095823;28;19927;-67
2021/12/08 00:44:23;;;;;;;;;;;;;;;7.76;71.73;99067.09;5095830;28;19920;-67
2021/12/08 00:46:50;;;;;;;;;;;;;;;7.55;72.24;99076.47;5095568;28;19920;-67
2021/12/08 00:49:17;;;;;;;;;;;;;;;7.59;71.90;99088.34;5095882;28;19920;-67
2021/12/08 00:51:44;;;;;;;;;;;;;;;7.62;71.75;99091.22;5095718;28;19927;-67
2021/12/08 00:54:11;;;;;;;;;;;;;;;7.68;71.10;99116.47;5096160;28;19919;-66
2021/12/08 00:56:38;;;;;;;;;;;;;;;7.71;70.79;99105.66;5094231;28;19920;-67
2021/12/08 00:59:05;;;;;;;;;;;;;;;7.40;71.63;99115.38;5077631;28;19919;-67
2021/12/08 01:01:32;;;;;;;;;;;;;;;7.56;72.04;99114.47;5067016;28;20287;-67
2021/12/08 01:04:00;;;;;;;;;;;;;;;7.52;71.35;99113.53;5055647;28;19921;-66
2021/12/08 01:06:27;;;;;;;;;;;;;;;7.42;71.15;99110.38;5057355;28;19928;-67
2021/12/08 01:08:54;;;;;;;;;;;;;;;7.41;71.42;99112.28;5059903;28;19921;-67
2021/12/08 01:11:21;;;;;;;;;;;;;;;7.54;71.10;99114.00;5059691;28;19928;-67
2021/12/08 01:13:48;;;;;;;;;;;;;;;7.43;70.99;99114.69;5041875;28;19935;-68
2021/12/08 01:16:15;;;;;;;;;;;;;;;7.23;71.42;99110.81;5057797;28;19921;-67
2021/12/08 01:18:43;;;;;;;;;;;;;;;7.23;72.13;99113.53;5059299;28;19921;-67
2021/12/08 01:21:10;;;;;;;;;;;;;;;7.49;71.47;99110.66;5058084;28;19920;-67
2021/12/08 01:23:37;;;;;;;;;;;;;;;7.42;70.70;99110.38;5059599;28;19920;-67
2021/12/08 01:26:05;;;;;;;;;;;;;;;7.39;70.51;99091.88;5060053;28;19921;-67
2021/12/08 01:28:32;;;;;;;;;;;;;;;7.25;70.85;99081.16;5059825;28;20380;-67
2021/12/08 01:31:01;;;;;;;;;;;;;;;7.20;71.28;99084.06;5059120;28;19946;-67
2021/12/08 01:33:31;;;;;;;;;;;;;;;7.26;71.21;99084.69;5059339;28;20264;-67
2021/12/08 01:35:59;;;;;;;;;;;;;;;7.23;71.07;99080.69;5058885;28;19955;-67
2021/12/08 01:38:26;;;;;;;;;;;;;;;7.19;71.12;99087.94;5058559;28;19930;-67
2021/12/08 01:40:53;;;;;;;;;;;;;;;7.15;71.26;99084.25;5081773;28;19921;-66
2021/12/08 01:43:26;;;;;;;;;;;;;;;7.14;71.45;99084.59;5059125;28;19928;-66
2021/12/08 01:46:00;;;;;;;;;;;;;;;7.12;71.67;99090.41;5057444;28;19927;-67
2021/12/08 01:48:29;;;;;;;;;;;;;;;7.13;71.26;99099.44;5058968;28;19921;-66
2021/12/08 01:50:58;;;;;;;;;;;;;;;7.29;71.35;99125.91;5058616;28;19946;-67
2021/12/08 01:53:26;;;;;;;;;;;;;;;7.21;71.57;99123.22;5057692;28;20387;-67
2021/12/08 01:55:52;;;;;;;;;;;;;;;7.10;71.62;99120.03;5058523;28;19924;-67
2021/12/08 01:58:20;;;;;;;;;;;;;;;7.21;71.68;99128.69;5058772;28;19928;-67
2021/12/08 02:00:55;;;;;;;;;;;;;;;7.36;71.37;99133.59;5058436;28;19927;-67
2021/12/08 02:03:23;;;;;;;;;;;;;;;7.33;71.18;99132.34;5057819;28;19920;-66
2021/12/08 02:05:50;;;;;;;;;;;;;;;7.13;71.74;99124.84;5066291;28;19932;-67
2021/12/08 02:08:18;;;;;;;;;;;;;;;7.00;72.34;99127.81;5058704;28;19921;-67
2021/12/08 02:10:45;;;;;;;;;;;;;;;6.95;72.77;99133.47;5059330;28;19921;-66
2021/12/08 02:13:12;;;;;;;;;;;;;;;7.16;72.80;99139.81;5058670;28;19920;-67
2021/12/08 02:15:39;;;;;;;;;;;;;;;7.18;72.24;99148.53;5059336;28;20253;-67
2021/12/08 02:18:08;;;;;;;;;;;;;;;7.12;72.93;99153.38;5039998;28;19921;-68
2021/12/08 02:20:35;;;;;;;;;;;;;;;7.17;72.58;99157.84;5058435;28;19921;-67
2021/12/08 02:23:02;;;;;;;;;;;;;;;7.07;73.11;99163.69;5058389;28;19921;-66
2021/12/08 02:25:29;;;;;;;;;;;;;;;7.12;72.71;99160.78;5058233;28;19924;-66
2021/12/08 02:27:57;;;;;;;;;;;;;;;7.00;72.74;99161.47;5057988;28;20375;-66
2021/12/08 02:30:46;;;;;;;;;;;;;;;6.90;73.95;99169.22;5057923;28;19928;-67
2021/12/08 02:47:15;;;;;;;;;;;;;;;7.01;74.02;99170.50;5097820;28;19930;-68
2021/12/08 02:49:42;;;;;;;;;;;;;;;6.84;73.14;99172.16;5097062;28;20302;-68
2021/12/08 02:52:10;;;;;;;;;;;;;;;7.15;72.67;99169.13;5097789;28;20363;-67
2021/12/08 02:54:45;;;;;;;;;;;;;;;7.04;72.76;99180.78;5098297;28;19927;-67
2021/12/08 02:57:12;;;;;;;;;;;;;;;6.91;73.04;99182.59;5097668;28;19924;-67
2021/12/08 02:59:40;;;;;;;;;;;;;;;6.67;73.61;99185.06;5097799;28;19924;-68
2021/12/08 03:02:07;;;;;;;;;;;;;;;6.69;73.41;99180.06;5096824;28;19924;-62
2021/12/08 03:04:34;;;;;;;;;;;;;;;6.92;72.73;99180.66;5097793;28;19942;-62
2021/12/08 03:07:01;;;;;;;;;;;;;;;7.07;71.79;99172.72;5083535;28;19924;-63
2021/12/08 03:09:28;;;;;;;;;;;;;;;7.11;71.26;99164.66;5077672;28;19957;-63
2021/12/08 03:12:00;;;;;;;;;;;;;;;6.88;72.34;99158.63;5077426;28;19927;-61
2021/12/08 03:14:29;;;;;;;;;;;;;;;6.77;72.52;99154.63;5077416;28;19928;-62
2021/12/08 03:16:58;;;;;;;;;;;;;;;6.71;73.04;99145.00;5075364;28;19920;-63
2021/12/08 03:19:26;;;;;;;;;;;;;;;6.82;73.14;99149.78;5075941;28;19920;-63
2021/12/08 03:21:54;;;;;;;;;;;;;;;6.67;72.67;99147.56;5075651;28;19927;-63
2021/12/08 03:29:24;;;;;;;;;;;;;;;6.96;72.17;99135.09;5076280;28;20372;-62
2021/12/08 03:31:53;;;;;;;;;;;;;;;6.97;72.17;99120.25;5075808;28;19920;-62
2021/12/08 03:34:24;;;;;;;;;;;;;;;6.74;72.22;99114.22;5075548;28;19920;-62
2021/12/08 03:36:51;;;;;;;;;;;;;;;6.57;72.62;99115.06;5076257;28;19928;-63
2021/12/08 03:39:18;;;;;;;;;;;;;;;6.81;73.08;99117.28;5084595;28;19920;-63
2021/12/08 03:41:46;;;;;;;;;;;;;;;6.73;72.63;99118.91;5062596;28;19919;-63
2021/12/08 03:44:13;;;;;;;;;;;;;;;6.61;72.57;99124.25;5096849;28;19920;-63
2021/12/08 03:46:42;;;;;;;;;;;;;;;6.68;72.80;99121.00;5096639;28;20255;-63
2021/12/08 03:49:11;;;;;;;;;;;;;;;6.72;73.01;99116.50;5095436;28;19920;-62
2021/12/08 03:51:39;;;;;;;;;;;;;;;6.53;73.74;99108.66;5096564;28;19927;-62
2021/12/08 03:54:06;;;;;;;;;;;;;;;6.64;73.48;99109.13;5096720;28;19927;-62
2021/12/08 03:56:33;;;;;;;;;;;;;;;6.72;72.63;99111.81;5096339;28;19920;-62
2021/12/08 03:59:00;;;;;;;;;;;;;;;6.67;73.07;99113.94;5096427;28;19931;-63
2021/12/08 04:01:27;;;;;;;;;;;;;;;6.68;73.49;99124.53;5096550;28;20455;-62
2021/12/08 04:04:00;;;;;;;;;;;;;;;6.82;72.63;99127.06;5096395;28;19920;-63
2021/12/08 04:06:41;;;;;;;;;;;;;;;6.58;73.06;99127.63;5096172;28;19927;-63
2021/12/08 04:12:05;;;;;;;;;;;;;;;6.61;73.41;99115.22;5059670;28;19921;-62
2021/12/08 04:14:38;;;;;;;;;;;;;;;6.44;73.83;99110.63;5054300;28;20368;-62
2021/12/08 04:17:08;;;;;;;;;;;;;;;6.50;73.92;99116.72;5054509;28;19926;-63
2021/12/08 04:19:35;;;;;;;;;;;;;;;6.63;72.76;99118.44;5056109;28;19920;-64
2021/12/08 04:22:10;;;;;;;;;;;;;;;6.62;73.32;99114.94;5054522;28;19928;-62
2021/12/08 04:24:38;;;;;;;;;;;;;;;6.50;73.63;99114.00;5056049;28;19920;-62
2021/12/08 04:27:07;;;;;;;;;;;;;;;6.47;73.66;99112.69;5055772;28;19932;-62
2021/12/08 04:29:36;;;;;;;;;;;;;;;6.48;73.63;99125.25;5055832;28;19921;-62
2021/12/08 04:32:03;;;;;;;;;;;;;;;6.44;74.05;99129.75;5055795;28;19921;-62
2021/12/08 04:34:32;;;;;;;;;;;;;;;6.37;73.91;99125.91;5038118;28;19920;-62
2021/12/08 04:37:03;;;;;;;;;;;;;;;6.25;74.48;99125.75;5055274;28;19921;-62
2021/12/08 04:39:40;;;;;;;;;;;;;;;6.30;74.59;99126.41;5074145;28;19920;-62
2021/12/08 04:42:12;;;;;;;;;;;;;;;6.15;75.31;99120.63;5096029;28;20363;-62
2021/12/08 04:44:52;;;;;;;;;;;;;;;6.26;74.89;99130.13;5095929;28;20283;-62
2021/12/08 04:53:23;;;;;;;;;;;;;;;6.35;74.50;99137.16;5095782;28;19920;-63
2021/12/08 05:07:14;;;;;;;;;;;;;;;6.21;74.55;99179.47;5095471;28;19920;-62
2021/12/08 05:09:42;;;;;;;;;;;;;;;6.18;75.22;99175.47;5066392;28;19925;-63
2021/12/08 05:12:36;;;;;;;;;;;;;;;6.20;75.01;99172.41;5067207;28;19921;-63
2021/12/08 05:15:21;;;;;;;;;;;;;;;6.08;75.76;99194.13;5056033;28;19921;-63
2021/12/08 05:17:49;;;;;;;;;;;;;;;6.08;75.95;99188.66;5072548;28;20023;-63
2021/12/08 05:20:26;;;;;;;;;;;;;;;6.17;75.71;99182.03;5058911;28;19929;-62
2021/12/08 05:22:55;;;;;;;;;;;;;;;6.24;75.21;99170.66;5064481;28;19920;-62
2021/12/08 05:25:23;;;;;;;;;;;;;;;6.12;75.18;99182.19;5075511;28;19927;-62
2021/12/08 05:27:53;;;;;;;;;;;;;;;5.99;76.27;99183.19;5074934;28;19928;-63
2021/12/08 05:30:34;;;;;;;;;;;;;;;6.03;75.93;99197.81;5074064;28;19920;-63
2021/12/08 05:33:02;;;;;;;;;;;;;;;5.89;76.33;99205.34;5072311;28;19925;-62
2021/12/08 05:35:29;;;;;;;;;;;;;;;6.00;76.15;99214.84;5074631;28;19927;-61
2021/12/08 05:37:57;;;;;;;;;;;;;;;5.89;76.00;99215.47;5075342;28;19921;-63
2021/12/08 05:40:26;;;;;;;;;;;;;;;5.75;76.79;99210.91;5082903;28;19920;-63
2021/12/08 05:42:53;;;;;;;;;;;;;;;6.13;76.01;99215.81;5073981;28;19920;-66
2021/12/08 05:45:21;;;;;;;;;;;;;;;6.16;75.29;99210.50;5074502;28;19920;-62
2021/12/08 05:47:49;;;;;;;;;;;;;;;6.20;75.02;99219.69;5074688;28;19920;-62
2021/12/08 05:50:19;;;;;;;;;;;;;;;6.21;75.33;99215.81;5069957;28;20325;-62
2021/12/08 05:52:46;;;;;;;;;;;;;;;6.00;75.66;99212.09;5057394;28;19931;-62
2021/12/08 05:55:13;;;;;;;;;;;;;;;5.89;76.11;99224.47;5076820;28;20289;-62
2021/12/08 05:57:42;;;;;;;;;;;;;;;5.79;76.31;99229.41;5078726;28;19920;-62
2021/12/08 06:00:10;;;;;;;;;;;;;;;6.08;75.67;99219.53;5073957;28;19920;-63
2021/12/08 06:02:39;;;;;;;;;;;;;;;5.84;76.26;99210.94;5072428;28;20387;-63
2021/12/08 06:05:07;;;;;;;;;;;;;;;5.74;76.75;99214.78;5078252;28;19924;-62
2021/12/08 06:07:34;;;;;;;;;;;;;;;5.89;76.46;99212.75;5077279;28;19925;-65
2021/12/08 06:10:03;;;;;;;;;;;;;;;5.74;76.41;99214.78;5066112;28;19958;-62
2021/12/08 06:12:30;;;;;;;;;;;;;;;5.57;77.48;99219.38;5040572;28;19920;-63
2021/12/08 06:14:57;;;;;;;;;;;;;;;5.73;77.11;99217.81;5073917;28;20387;-67
2021/12/08 06:17:26;;;;;;;;;;;;;;;5.92;76.45;99221.09;5076903;28;19921;-68
2021/12/08 06:19:53;;;;;;;;;;;;;;;5.79;76.66;99208.34;5078239;28;19920;-63
2021/12/08 06:22:21;;;;;;;;;;;;;;;5.83;76.56;99206.63;5059750;28;19963;-62
2021/12/08 06:24:48;;;;;;;;;;;;;;;5.91;76.70;99222.22;5058063;28;19928;-62
2021/12/08 06:27:15;;;;;;;;;;;;;;;6.13;75.31;99222.09;5072396;28;19927;-67
2021/12/08 06:29:44;;;;;;;;;;;;;;;6.14;75.31;99218.22;5058938;28;19936;-67
2021/12/08 06:32:11;;;;;;;;;;;;;;;6.00;75.37;99233.97;5058002;28;19932;-67
2021/12/08 06:34:39;;;;;;;;;;;;;;;6.02;75.32;99234.47;5062521;28;20003;-66
2021/12/08 06:37:19;;;;;;;;;;;;;;;5.97;75.49;99228.34;5057845;28;19925;-67
2021/12/08 06:39:50;;;;;;;;;;;;;;;5.92;75.84;99237.50;5071887;28;19927;-67
2021/12/08 06:42:18;;;;;;;;;;;;;;;5.97;75.86;99234.63;5057899;28;19920;-67
2021/12/08 06:44:46;;;;;;;;;;;;;;;5.91;76.12;99237.81;5057730;28;19920;-66
2021/12/08 06:47:16;;;;;;;;;;;;;;;5.90;75.89;99228.00;5056165;28;19921;-67
2021/12/08 06:49:47;;;;;;;;;;;;;;;5.97;76.19;99225.59;5060624;28;19925;-67
2021/12/08 06:52:16;;;;;;;;;;;;;;;6.05;75.69;99222.09;5070316;28;19920;-68
2021/12/08 06:54:44;;;;;;;;;;;;;;;6.00;75.04;99214.84;5070305;28;19931;-67
2021/12/08 06:57:18;;;;;;;;;;;;;;;5.91;75.44;99214.00;5057819;28;20050;-68
2021/12/08 06:59:58;;;;;;;;;;;;;;;5.98;75.13;99219.81;5068520;28;19920;-68
2021/12/08 07:05:52;;;;;;;;;;;;;;;5.88;75.97;99224.78;5056688;28;19928;-68
2021/12/08 07:08:19;;;;;;;;;;;;;;;5.90;76.38;99219.81;5073057;28;19924;-67
2021/12/08 07:10:47;;;;;;;;;;;;;;;5.89;76.23;99216.28;5066806;28;19921;-66
2021/12/08 07:13:22;;;;;;;;;;;;;;;5.74;76.52;99217.50;5058460;28;19921;-66
2021/12/08 07:15:50;;;;;;;;;;;;;;;5.80;76.45;99220.91;5060400;28;19924;-67
2021/12/08 07:18:24;;;;;;;;;;;;;;;5.82;76.47;99221.38;5057856;28;19925;-68
2021/12/08 07:20:53;;;;;;;;;;;;;;;5.93;78.14;99217.25;5055566;28;19928;-71
2021/12/08 07:23:36;;;;;;;;;;;;;;;6.62;78.30;99218.88;5059972;28;19936;-63
2021/12/08 07:26:06;;;;;;;;;;;;;;;5.92;76.67;99229.31;5061854;28;20336;-64
2021/12/08 07:28:35;;;;;;;;;;;;;;;5.98;76.19;99247.13;5058465;28;19925;-64
2021/12/08 07:31:20;;;;;;;;;;;;;;;6.22;76.10;99243.97;5071774;28;19932;-65
2021/12/08 07:33:47;;;;;;;;;;;;;;;6.40;75.78;99242.84;5063345;28;19920;-64
2021/12/08 07:36:16;;;;;;;;;;;;;;;6.15;74.99;99249.13;5064075;28;20391;-64
2021/12/08 07:38:49;;;;;;;;;;;;;;;6.14;76.13;99242.84;5066436;28;20379;-63
2021/12/08 07:41:16;;;;;;;;;;;;;;;6.20;76.00;99255.22;5071500;28;19921;-63
2021/12/08 07:43:46;;;;;;;;;;;;;;;6.18;75.57;99262.94;5074312;28;20375;-63
2021/12/08 07:46:19;;;;;;;;;;;;;;;6.63;75.81;99271.63;5060477;28;19929;-64
2021/12/08 07:48:49;;;;;;;;;;;;;;;6.38;74.96;99283.41;5057341;28;19921;-63
2021/12/08 07:51:25;;;;;;;;;;;;;;;6.43;74.63;99283.25;5087924;28;19928;-64
2021/12/08 07:53:52;;;;;;;;;;;;;;;6.41;73.85;99283.56;5054703;28;19927;-67
2021/12/08 07:56:20;;;;;;;;;;;;;;;6.42;74.50;99287.09;5062184;28;19920;-63
2021/12/08 07:58:49;;;;;;;;;;;;;;;6.99;74.88;99284.97;5054297;28;19920;-65
2021/12/08 08:01:17;;;;;;;;;;;;;;;6.67;73.38;99287.09;5053732;28;19932;-64
2021/12/08 08:03:45;;;;;;;;;;;;;;;6.59;73.37;99292.59;5055324;28;19957;-65
2021/12/08 08:06:20;;;;;;;;;;;;;;;6.57;74.40;99281.16;5054950;28;19921;-64
2021/12/08 08:08:47;;;;;;;;;;;;;;;6.31;74.86;99283.06;5055024;28;19928;-64
2021/12/08 08:11:17;;;;;;;;;;;;;;;6.37;74.11;99285.31;5054987;28;19921;-64
2021/12/08 08:13:44;;;;;;;;;;;;;;;6.47;74.50;99289.66;5055521;28;19928;-65
2021/12/08 08:16:14;;;;;;;;;;;;;;;6.47;74.09;99290.47;5054927;28;19921;-63
2021/12/08 08:18:43;;;;;;;;;;;;;;;6.55;74.26;99284.22;5056597;28;19927;-63
2021/12/08 08:21:14;;;;;;;;;;;;;;;6.68;73.64;99285.97;5056700;28;19928;-63
2021/12/08 08:23:41;;;;;;;;;;;;;;;6.80;73.60;99283.38;5055199;28;19928;-64
2021/12/08 08:26:09;;;;;;;;;;;;;;;6.83;73.21;99288.19;5064637;28;19920;-66
2021/12/08 08:28:36;;;;;;;;;;;;;;;6.63;73.37;99283.41;5065696;28;19932;-64
2021/12/08 08:31:05;;;;;;;;;;;;;;;6.64;73.27;99295.94;5069085;28;20307;-65
2021/12/08 08:33:34;;;;;;;;;;;;;;;6.58;73.29;99294.50;5055333;28;19920;-65
2021/12/08 08:36:04;;;;;;;;;;;;;;;6.49;74.07;99299.16;5057183;28;19920;-64
2021/12/08 08:38:33;;;;;;;;;;;;;;;6.50;73.60;99305.44;5060481;28;19925;-65
2021/12/08 08:41:21;;;;;;;;;;;;;;;6.51;73.47;99299.66;5068918;28;19921;-63
2021/12/08 08:43:49;;;;;;;;;;;;;;;6.51;74.58;99302.38;5069193;28;19928;-64
2021/12/08 08:46:18;;;;;;;;;;;;;;;6.75;73.92;99299.16;5064742;28;19924;-64
2021/12/08 08:48:55;;;;;;;;;;;;;;;7.05;73.09;99295.44;5053066;28;19928;-63
2021/12/08 08:51:25;;;;;;;;;;;;;;;6.99;72.44;99291.25;5057735;28;20279;-63
2021/12/08 08:53:53;;;;;;;;;;;;;;;6.91;72.98;99291.25;5053289;28;19936;-62
2021/12/08 08:56:22;;;;;;;;;;;;;;;7.24;72.36;99287.66;5048295;28;19921;-63
2021/12/08 08:58:52;;;;;;;;;;;;;;;7.23;71.72;99283.31;5059752;28;19929;-63
2021/12/08 09:01:21;;;;;;;;;;;;;;;7.07;71.46;99274.00;5056981;28;19921;-64
2021/12/08 09:03:51;;;;;;;;;;;;;;;6.81;71.50;99289.66;5067983;28;19987;-65
2021/12/08 09:06:21;;;;;;;;;;;;;;;7.13;71.51;99282.88;5057702;28;19928;-63
2021/12/08 09:08:48;;;;;;;;;;;;;;;6.99;71.11;99291.25;5081800;28;19920;-64
2021/12/08 09:11:17;;;;;;;;;;;;;;;6.56;72.03;99294.00;5075156;28;19920;-64
2021/12/08 09:13:44;;;;;;;;;;;;;;;6.55;72.48;99297.88;5070673;28;20388;-63
2021/12/08 09:16:15;;;;;;;;;;;;;;;6.47;72.46;99295.13;5062780;28;19921;-63
2021/12/08 09:18:50;;;;;;;;;;;;;;;6.53;73.14;99308.34;5055805;28;19921;-64
2021/12/08 09:21:22;;;;;;;;;;;;;;;6.70;73.08;99313.00;5072649;28;19927;-64
2021/12/08 09:23:56;;;;;;;;;;;;;;;6.84;71.96;99324.59;5064707;28;19928;-65
2021/12/08 09:28:34;;;;;;;14.27;2.55;;;;;;;8.25;67.11;99312.22;5091843;28;20197;-63
2021/12/08 09:31:09;;;;;;;19.00;2.53;;;;;;;7.20;69.40;99319.56;5078595;28;20040;-63
2021/12/08 09:33:57;;;;;;;18.88;2.60;;;;;;;6.93;70.64;99339.09;5076928;28;20048;-64
2021/12/08 09:36:33;;;;;;;16.17;3.13;;;;;;;7.05;71.61;99327.47;5065350;28;20048;-64
2021/12/08 09:39:13;;;;;;;12.52;2.83;;;;;;;7.14;71.28;99334.56;5077655;28;20139;-62
2021/12/08 09:41:48;;;;;;;;;;;;;;;7.06;70.95;99346.31;5092125;28;20407;-63
2021/12/08 09:44:20;;;;;;;11.40;1.85;;;;;;;6.99;70.94;99337.78;5107640;28;19920;-63
2021/12/08 09:46:49;;;;;;;14.40;2.50;;;;;;;7.09;70.99;99353.06;5074395;28;20053;-62
2021/12/08 09:49:18;;;;;;;23.35;2.83;;;;;;;6.78;71.66;99345.84;5059535;28;20041;-64
2021/12/08 09:51:47;;;;;;;11.83;2.50;;;;;;;6.82;71.84;99344.06;5058419;28;20052;-63
2021/12/08 09:54:15;;;;;;;11.65;2.97;;;;;;;7.08;71.47;99349.53;5053184;28;20790;-62
2021/12/08 09:56:45;;;;;;;15.15;3.28;;;;;;;7.16;70.87;99340.53;5057476;28;20052;-62
2021/12/08 09:59:12;;;;;;;12.50;2.10;;;;;;;7.23;70.27;99324.41;5050822;28;20400;-63
2021/12/08 10:01:41;;;;;;;10.40;2.38;;;;;;;7.10;70.29;99325.38;5051922;28;20064;-63
2021/12/08 10:04:11;;;;;;;14.95;2.55;;;;;;;7.00;70.63;99314.75;5062005;28;20053;-64
2021/12/08 10:06:40;;;;;;;12.33;2.20;;;;;;;7.04;71.06;99315.72;5050124;28;20045;-63
2021/12/08 10:09:07;;;;;;;12.50;2.45;;;;;;;7.12;70.39;99311.34;5062845;28;20053;-64
2021/12/08 10:11:35;;;;;;;13.93;2.50;;;;;;;7.15;70.42;99314.25;5071771;28;20052;-62
2021/12/08 10:14:03;;;;;;;8.85;1.65;;;;;;;7.23;69.88;99310.72;5051404;28;20049;-62
2021/12/08 10:16:32;;;;;;;12.05;2.10;;;;;;;7.40;70.06;99307.09;5049526;28;20053;-62
2021/12/08 10:19:00;;;;;;;10.48;1.95;;;;;;;7.17;69.53;99300.22;5053966;28;20057;-64
2021/12/08 10:21:41;;;;;;;12.15;2.50;;;;;;;7.32;69.58;99299.72;5050656;28;20060;-63
2021/12/08 10:24:19;;;;;;;16.05;2.78;;;;;;;7.46;69.08;99322.25;5052696;28;20413;-63
2021/12/08 10:26:48;;;;;;;15.63;2.42;;;;;;;7.20;70.18;99327.75;5059915;28;20041;-63
2021/12/08 10:29:23;;;;;;;8.85;2.08;;;;;;;7.05;70.16;99320.06;5050098;28;20053;-62
2021/12/08 10:31:53;;;;;;;12.85;2.50;;;;;;;7.21;69.88;99312.16;5060954;28;20049;-63
2021/12/08 10:34:28;;;;;;;;;;;;;;;7.29;69.57;99316.78;5065282;28;20053;-64
2021/12/08 10:36:59;;;;;;;12.25;2.38;;;;;;;7.58;68.99;99314.16;5053520;28;20408;-65
2021/12/08 10:39:37;;;;;;;15.13;2.45;;;;;;;7.50;68.97;99321.25;5055141;28;20053;-62
2021/12/08 10:42:24;;;;;;;12.57;2.35;;;;;;;7.63;68.60;99309.31;5041728;28;20045;-62
2021/12/08 10:45:13;;;;;;;12.63;1.90;;;;;;;7.74;67.74;99310.53;5038748;28;20049;-62
2021/12/08 10:47:48;;;;;;;13.93;2.40;;;;;;;8.30;66.57;99300.28;5050428;28;20056;-63
2021/12/08 10:56:08;;;;;;;14.07;2.22;;;;;;;7.86;65.86;99307.09;5052359;28;20496;-64
2021/12/08 10:58:39;;;;;;;12.30;2.83;;;;;;;8.04;66.00;99305.88;5052887;28;20049;-64
2021/12/08 11:01:20;;;;;;;9.45;3.50;;;;;;;8.21;67.05;99300.28;5055992;28;20063;-64
2021/12/08 11:03:49;;;;;;;12.27;3.17;;;;;;;8.24;65.99;99298.84;5040509;28;20060;-63
2021/12/08 11:06:19;;;;;;;11.90;2.03;;;;;;;8.28;64.49;99305.28;5034945;28;20095;-63
2021/12/08 11:08:51;;;;;;;12.48;2.63;;;;;;;8.00;65.09;99310.44;5041418;28;20038;-63
2021/12/08 11:11:24;;;;;;;11.02;2.05;;;;;;;8.00;65.01;99322.19;5045479;28;20488;-64
2021/12/08 11:13:54;;;;;;;8.10;1.90;;;;;;;8.17;64.80;99323.22;5039913;28;20045;-63
2021/12/08 11:16:27;;;;;;;9.30;2.08;;;;;;;7.97;64.57;99319.28;5059868;28;20133;-64
2021/12/08 11:19:06;;;;;;;14.50;2.42;;;;;;;8.24;64.15;99329.03;5040578;28;20045;-62
2021/12/08 11:21:37;;;;;;;8.95;1.85;;;;;;;8.44;64.80;99323.56;5035386;28;20052;-63
2021/12/08 11:24:34;;;;;;;13.98;2.78;;;;;;;8.58;64.71;99323.31;5053540;28;20166;-62
2021/12/08 11:27:05;;;;;;;11.15;2.50;;;;;;;8.59;62.80;99305.72;5079069;28;20054;-65
2021/12/08 11:29:36;;;;;;;14.15;2.53;;;;;;;8.57;62.89;99308.00;5044364;28;20052;-63
2021/12/08 11:32:12;;;;;;;10.05;2.05;;;;;;;8.63;63.34;99315.69;5077340;28;20060;-64
2021/12/08 11:34:42;;;;;;;14.48;2.47;;;;;;;8.52;62.41;99300.78;5068313;28;20057;-64
2021/12/08 11:37:18;;;;;;;14.30;2.42;;;;;;;8.67;62.15;99302.91;5040310;28;20057;-65
2021/12/08 11:39:48;;;;;;;;;;;;;;;8.69;62.46;99313.53;5043297;28;20056;-68
2021/12/08 11:42:22;;;;;;;11.90;2.58;;;;;;;8.94;62.06;99305.09;5069387;28;19921;-63
2021/12/08 11:44:52;;;;;;;13.30;3.00;;;;;;;8.49;63.30;99315.13;5062579;28;20045;-66
2021/12/08 11:47:31;;;;;;;16.75;4.68;;;;;;;8.69;62.92;99313.53;5052641;28;20056;-66
2021/12/08 11:50:03;;;;;;;17.95;6.88;;;;;;;8.49;62.83;99308.88;5048754;28;20060;-65
2021/12/08 11:52:32;;;;;;;18.73;5.07;;;;;;;8.56;63.53;99309.91;5053349;28;20067;-66
2021/12/08 11:55:06;;;;;;;11.88;3.63;;;;;;;8.74;62.90;99313.34;5053860;28;20045;-67
2021/12/08 11:57:49;;;;;;;11.27;3.53;;;;;;;8.97;62.51;99326.41;5053909;28;20045;-67
2021/12/08 12:00:31;;;;;;;37.05;19.70;;;;;;;8.73;62.71;99320.78;5036477;28;20066;-67
2021/12/08 12:03:08;;;;;;;29.45;14.15;;;;;;;8.93;62.06;99325.47;5054907;28;20056;-66
2021/12/08 12:05:43;;;;;;;14.90;6.07;;;;;;;8.97;62.17;99320.91;5051723;28;20500;-66
2021/12/08 12:08:13;;;;;;;11.23;3.05;;;;;;;8.85;62.06;99326.34;5045928;28;20045;-66
2021/12/08 12:10:44;;;;;;;12.00;2.90;;;;;;;8.71;62.33;99320.31;5052607;28;20049;-66
2021/12/08 12:13:13;;;;;;;9.73;2.67;;;;;;;8.76;63.00;99330.28;5053314;28;20068;-65
2021/12/08 12:15:46;;;;;;;11.90;3.60;;;;;;;8.96;62.47;99333.00;5043924;28;20052;-66
2021/12/08 12:18:18;;;;;;;12.63;2.90;;;;;;;9.19;61.60;99329.94;5045852;28;20060;-67
2021/12/08 12:21:12;;;;;;;12.23;3.92;;;;;;;9.22;61.41;99324.56;5077239;28;20045;-66
2021/12/08 12:24:03;;;;;;;13.15;2.85;;;;;;;9.32;61.50;99324.13;5067979;28;20053;-63
2021/12/08 12:27:01;;;;;;;14.98;3.88;;;;;;;8.76;62.58;99330.28;5048891;28;20060;-63
2021/12/08 12:29:36;;;;;;;12.68;2.80;;;;;;;8.83;64.07;99328.63;5057684;28;20448;-63
2021/12/08 12:32:17;;;;;;;9.20;2.30;;;;;;;8.78;62.51;99331.56;5042968;28;20505;-64
2021/12/08 12:34:44;;;;;;;8.55;1.80;;;;;;;8.87;62.93;99340.50;5035302;28;20060;-64
2021/12/08 12:37:14;;;;;;;8.52;1.77;;;;;;;8.91;62.09;99348.88;5046266;28;20532;-62
2021/12/08 12:39:50;;;;;;;6.85;1.73;;;;;;;8.69;62.17;99346.47;5057060;28;20059;-63
2021/12/08 12:42:19;;;;;;;6.68;2.03;;;;;;;8.77;62.00;99346.41;5054086;28;20060;-64
2021/12/08 12:44:58;;;;;;;13.25;2.22;;;;;;;8.94;61.14;99354.50;5046227;28;20041;-63
2021/12/08 12:47:28;;;;;;;10.77;1.98;;;;;;;8.98;61.65;99358.19;5052294;28;20053;-62
2021/12/08 12:49:59;;;;;;;14.18;2.28;;;;;;;9.01;61.97;99362.22;5059502;28;20057;-63
2021/12/08 12:52:37;;;;;;;;;;;;;;;9.33;60.93;99368.91;5038546;28;20049;-63
2021/12/08 12:55:31;;;;;;;14.25;3.33;;;;;;;9.22;60.34;99364.97;5040713;28;19920;-63
2021/12/08 12:58:04;;;;;;;11.90;2.33;;;;;;;9.19;60.89;99371.13;5070304;28;20051;-64
2021/12/08 13:00:51;;;;;;;10.93;2.60;;;;;;;9.21;60.66;99366.06;5050549;28;20057;-62
2021/12/08 13:03:42;;;;;;;8.93;2.40;;;;;;;9.43;61.04;99360.22;5066862;28;20054;-63
2021/12/08 13:06:13;;;;;;;8.75;2.20;;;;;;;9.74;60.03;99366.03;5052750;28;20056;-63
2021/12/08 13:08:44;;;;;;;6.85;1.45;;;;;;;9.58;59.21;99370.56;5049594;28;20037;-62
2021/12/08 13:11:33;;;;;;;8.05;2.55;;;;;;;9.53;58.65;99360.59;5045106;28;20053;-63
2021/12/08 13:14:03;;;;;;;13.25;3.17;;;;;;;9.46;59.12;99367.78;5051931;28;20053;-62
2021/12/08 13:16:33;;;;;;;10.57;4.30;;;;;;;9.53;58.66;99365.28;5042464;28;20049;-62
2021/12/08 13:19:03;;;;;;;9.02;2.67;;;;;;;9.58;58.53;99370.56;5035489;28;20056;-63
2021/12/08 13:21:38;;;;;;;9.27;2.28;;;;;;;9.63;57.88;99364.84;5032973;28;20420;-64
2021/12/08 13:24:05;;;;;;;8.32;2.03;;;;;;;9.64;57.50;99372.75;5039161;28;20049;-63
2021/12/08 13:26:47;;;;;;;14.95;4.80;;;;;;;9.55;58.18;99379.50;5035183;28;20083;-63
2021/12/08 13:29:21;;;;;;;16.50;6.85;;;;;;;9.35;57.90;99374.84;5039102;28;20049;-64
2021/12/08 13:32:11;;;;;;;15.60;4.82;;;;;;;9.20;58.14;99378.22;5043793;28;20053;-64
2021/12/08 13:34:41;;;;;;;7.90;2.33;;;;;;;9.14;59.44;99374.88;5038992;28;20053;-62
2021/12/08 13:37:24;;;;;;;7.70;1.80;;;;;;;9.32;59.12;99383.75;5034425;28;20053;-62
2021/12/08 13:39:53;;;;;;;9.20;1.60;;;;;;;9.37;58.37;99395.34;5045240;28;20115;-62
2021/12/08 13:42:49;;;;;;;7.65;1.45;;;;;;;9.53;57.57;99390.03;5049372;28;20049;-61
2021/12/08 13:45:17;;;;;;;7.03;1.33;;;;;;;9.67;57.35;99396.03;5039091;28;20045;-63
2021/12/08 13:47:46;;;;;;;10.57;2.05;;;;;;;9.66;57.75;99394.44;5049141;28;20049;-63